sensor_id;sensor_type;location;lat;lon;timestamp;P1;durP1;ratioP1;P2;durP2;ratioP2
3207;SDS011;1616;52.394;9.756;2023-05-13T00:01:13;5.67;;;5.27;;
3207;SDS011;1616;52.394;9.756;2023-05-13T00:03:40;5.90;;;4.60;;
3207;SDS011;1616;52.394;9.756;2023-05-13T00:06:06;5.43;;;4.90;;
3207;SDS011;1616;52.394;9.756;2023-05-13T00:08:31;5.00;;;4.70;;
3207;SDS011;1616;52.394;9.756;2023-05-13T00:10:57;6.00;;;5.20;;
3207;SDS011;1616;52.394;9.756;2023-05-13T00:13:22;5.40;;;5.07;;
3207;SDS011;1616;52.394;9.756;2023-05-13T00:15:48;5.10;;;4.70;;
3207;SDS011;1616;52.394;9.756;2023-05-13T00:18:13;7.27;;;5.37;;
3207;SDS011;1616;52.394;9.756;2023-05-13T00:20:39;7.13;;;6.07;;
3207;SDS011;1616;52.394;9.756;2023-05-13T00:23:05;5.40;;;5.10;;
3207;SDS011;1616;52.394;9.756;2023-05-13T00:25:32;5.57;;;5.23;;
3207;SDS011;1616;52.394;9.756;2023-05-13T00:27:57;5.60;;;5.10;;
3207;SDS011;1616;52.394;9.756;2023-05-13T00:30:23;5.23;;;4.57;;
3207;SDS011;1616;52.394;9.756;2023-05-13T00:32:49;5.20;;;5.00;;
3207;SDS011;1616;52.394;9.756;2023-05-13T00:35:15;5.13;;;4.83;;
3207;SDS011;1616;52.394;9.756;2023-05-13T00:37:41;6.00;;;5.60;;
3207;SDS011;1616;52.394;9.756;2023-05-13T00:40:19;9.17;;;5.90;;
3207;SDS011;1616;52.394;9.756;2023-05-13T00:42:45;6.43;;;5.50;;
3207;SDS011;1616;52.394;9.756;2023-05-13T00:45:11;19.37;;;5.53;;
3207;SDS011;1616;52.394;9.756;2023-05-13T00:47:38;5.40;;;5.00;;
3207;SDS011;1616;52.394;9.756;2023-05-13T00:50:05;6.07;;;5.57;;
3207;SDS011;1616;52.394;9.756;2023-05-13T00:52:32;5.70;;;5.30;;
3207;SDS011;1616;52.394;9.756;2023-05-13T00:54:58;4.60;;;4.40;;
3207;SDS011;1616;52.394;9.756;2023-05-13T00:57:23;5.83;;;5.43;;
3207;SDS011;1616;52.394;9.756;2023-05-13T00:59:49;6.00;;;5.63;;
3207;SDS011;1616;52.394;9.756;2023-05-13T01:05:13;13.73;;;4.97;;
3207;SDS011;1616;52.394;9.756;2023-05-13T01:10:35;5.80;;;5.50;;
3207;SDS011;1616;52.394;9.756;2023-05-13T01:13:15;5.60;;;5.20;;
3207;SDS011;1616;52.394;9.756;2023-05-13T01:15:46;5.83;;;5.53;;
3207;SDS011;1616;52.394;9.756;2023-05-13T01:18:51;8.70;;;5.60;;
3207;SDS011;1616;52.394;9.756;2023-05-13T01:21:11;7.20;;;5.13;;
3207;SDS011;1616;52.394;9.756;2023-05-13T01:23:37;4.93;;;4.50;;
3207;SDS011;1616;52.394;9.756;2023-05-13T01:26:03;6.77;;;6.37;;
3207;SDS011;1616;52.394;9.756;2023-05-13T01:28:28;6.70;;;5.60;;
3207;SDS011;1616;52.394;9.756;2023-05-13T01:30:54;6.60;;;6.10;;
3207;SDS011;1616;52.394;9.756;2023-05-13T01:33:22;5.40;;;5.20;;
3207;SDS011;1616;52.394;9.756;2023-05-13T01:35:48;6.23;;;5.73;;
3207;SDS011;1616;52.394;9.756;2023-05-13T01:38:14;5.83;;;5.53;;
3207;SDS011;1616;52.394;9.756;2023-05-13T01:40:41;6.90;;;6.50;;
3207;SDS011;1616;52.394;9.756;2023-05-13T01:43:07;6.67;;;6.07;;
3207;SDS011;1616;52.394;9.756;2023-05-13T01:45:34;6.30;;;5.90;;
3207;SDS011;1616;52.394;9.756;2023-05-13T01:47:59;7.90;;;5.47;;
3207;SDS011;1616;52.394;9.756;2023-05-13T01:50:25;6.63;;;6.13;;
3207;SDS011;1616;52.394;9.756;2023-05-13T01:52:50;6.93;;;6.47;;
3207;SDS011;1616;52.394;9.756;2023-05-13T01:55:16;6.30;;;6.00;;
3207;SDS011;1616;52.394;9.756;2023-05-13T01:57:43;7.13;;;6.47;;
3207;SDS011;1616;52.394;9.756;2023-05-13T02:00:09;7.50;;;7.00;;
3207;SDS011;1616;52.394;9.756;2023-05-13T02:02:35;9.87;;;6.10;;
3207;SDS011;1616;52.394;9.756;2023-05-13T02:05:00;7.43;;;6.17;;
3207;SDS011;1616;52.394;9.756;2023-05-13T02:07:26;6.83;;;6.50;;
3207;SDS011;1616;52.394;9.756;2023-05-13T02:09:52;6.57;;;6.27;;
3207;SDS011;1616;52.394;9.756;2023-05-13T02:12:25;9.03;;;6.63;;
3207;SDS011;1616;52.394;9.756;2023-05-13T02:14:52;6.83;;;6.43;;
3207;SDS011;1616;52.394;9.756;2023-05-13T02:17:18;7.00;;;6.40;;
3207;SDS011;1616;52.394;9.756;2023-05-13T02:19:44;7.53;;;5.90;;
3207;SDS011;1616;52.394;9.756;2023-05-13T02:22:10;8.03;;;7.53;;
3207;SDS011;1616;52.394;9.756;2023-05-13T02:24:35;6.57;;;5.97;;
3207;SDS011;1616;52.394;9.756;2023-05-13T02:27:04;7.23;;;6.63;;
3207;SDS011;1616;52.394;9.756;2023-05-13T02:29:36;7.63;;;7.13;;
3207;SDS011;1616;52.394;9.756;2023-05-13T02:32:01;6.97;;;6.40;;
3207;SDS011;1616;52.394;9.756;2023-05-13T02:34:27;6.67;;;6.10;;
3207;SDS011;1616;52.394;9.756;2023-05-13T02:36:52;7.23;;;6.73;;
3207;SDS011;1616;52.394;9.756;2023-05-13T02:39:18;7.67;;;7.07;;
3207;SDS011;1616;52.394;9.756;2023-05-13T02:41:44;8.53;;;6.13;;
3207;SDS011;1616;52.394;9.756;2023-05-13T02:44:09;7.27;;;6.97;;
3207;SDS011;1616;52.394;9.756;2023-05-13T02:46:35;7.83;;;7.10;;
3207;SDS011;1616;52.394;9.756;2023-05-13T02:49:01;6.97;;;6.57;;
3207;SDS011;1616;52.394;9.756;2023-05-13T02:51:27;7.30;;;6.53;;
3207;SDS011;1616;52.394;9.756;2023-05-13T02:53:53;7.63;;;6.77;;
3207;SDS011;1616;52.394;9.756;2023-05-13T02:56:18;8.73;;;6.07;;
3207;SDS011;1616;52.394;9.756;2023-05-13T02:58:44;6.60;;;6.27;;
3207;SDS011;1616;52.394;9.756;2023-05-13T03:01:10;7.43;;;6.77;;
3207;SDS011;1616;52.394;9.756;2023-05-13T03:03:36;7.40;;;6.90;;
3207;SDS011;1616;52.394;9.756;2023-05-13T03:06:02;8.30;;;7.70;;
3207;SDS011;1616;52.394;9.756;2023-05-13T03:08:29;7.23;;;6.83;;
3207;SDS011;1616;52.394;9.756;2023-05-13T03:10:54;7.37;;;6.83;;
3207;SDS011;1616;52.394;9.756;2023-05-13T03:13:20;9.77;;;7.30;;
3207;SDS011;1616;52.394;9.756;2023-05-13T03:15:45;7.40;;;6.90;;
3207;SDS011;1616;52.394;9.756;2023-05-13T03:18:11;8.00;;;6.30;;
3207;SDS011;1616;52.394;9.756;2023-05-13T03:20:36;7.70;;;6.20;;
3207;SDS011;1616;52.394;9.756;2023-05-13T03:23:03;8.20;;;7.37;;
3207;SDS011;1616;52.394;9.756;2023-05-13T03:25:29;7.67;;;6.00;;
3207;SDS011;1616;52.394;9.756;2023-05-13T03:27:55;6.13;;;5.73;;
3207;SDS011;1616;52.394;9.756;2023-05-13T03:30:21;7.63;;;6.93;;
3207;SDS011;1616;52.394;9.756;2023-05-13T03:32:46;6.10;;;5.80;;
3207;SDS011;1616;52.394;9.756;2023-05-13T03:35:13;6.07;;;5.67;;
3207;SDS011;1616;52.394;9.756;2023-05-13T03:37:38;6.63;;;6.30;;
3207;SDS011;1616;52.394;9.756;2023-05-13T03:40:04;7.70;;;7.00;;
3207;SDS011;1616;52.394;9.756;2023-05-13T03:42:30;7.87;;;6.40;;
3207;SDS011;1616;52.394;9.756;2023-05-13T03:44:56;6.80;;;6.23;;
3207;SDS011;1616;52.394;9.756;2023-05-13T03:47:22;6.20;;;5.77;;
3207;SDS011;1616;52.394;9.756;2023-05-13T03:49:48;6.30;;;5.70;;
3207;SDS011;1616;52.394;9.756;2023-05-13T03:52:14;7.83;;;7.10;;
3207;SDS011;1616;52.394;9.756;2023-05-13T03:54:41;6.80;;;6.30;;
3207;SDS011;1616;52.394;9.756;2023-05-13T03:57:06;5.87;;;5.57;;
3207;SDS011;1616;52.394;9.756;2023-05-13T03:59:32;6.47;;;5.97;;
3207;SDS011;1616;52.394;9.756;2023-05-13T04:01:58;12.13;;;7.50;;
3207;SDS011;1616;52.394;9.756;2023-05-13T04:04:24;6.63;;;5.80;;
3207;SDS011;1616;52.394;9.756;2023-05-13T04:06:50;6.87;;;6.17;;
3207;SDS011;1616;52.394;9.756;2023-05-13T04:09:15;6.77;;;6.37;;
3207;SDS011;1616;52.394;9.756;2023-05-13T04:11:41;5.57;;;5.17;;
3207;SDS011;1616;52.394;9.756;2023-05-13T04:14:06;6.80;;;6.30;;
3207;SDS011;1616;52.394;9.756;2023-05-13T04:16:32;6.03;;;5.53;;
3207;SDS011;1616;52.394;9.756;2023-05-13T04:18:57;6.47;;;6.07;;
3207;SDS011;1616;52.394;9.756;2023-05-13T04:21:23;6.30;;;5.70;;
3207;SDS011;1616;52.394;9.756;2023-05-13T04:23:48;6.73;;;6.13;;
3207;SDS011;1616;52.394;9.756;2023-05-13T04:26:14;5.30;;;5.07;;
3207;SDS011;1616;52.394;9.756;2023-05-13T04:28:40;5.13;;;4.73;;
3207;SDS011;1616;52.394;9.756;2023-05-13T04:31:06;8.13;;;5.90;;
3207;SDS011;1616;52.394;9.756;2023-05-13T04:33:32;5.50;;;5.20;;
3207;SDS011;1616;52.394;9.756;2023-05-13T04:35:58;9.03;;;6.80;;
3207;SDS011;1616;52.394;9.756;2023-05-13T04:38:23;4.73;;;4.47;;
3207;SDS011;1616;52.394;9.756;2023-05-13T04:40:49;7.43;;;5.30;;
3207;SDS011;1616;52.394;9.756;2023-05-13T04:43:15;5.87;;;5.47;;
3207;SDS011;1616;52.394;9.756;2023-05-13T04:45:41;5.37;;;5.07;;
3207;SDS011;1616;52.394;9.756;2023-05-13T04:48:07;6.27;;;4.87;;
3207;SDS011;1616;52.394;9.756;2023-05-13T04:50:33;15.23;;;4.83;;
3207;SDS011;1616;52.394;9.756;2023-05-13T04:52:58;4.77;;;4.27;;
3207;SDS011;1616;52.394;9.756;2023-05-13T04:55:24;4.73;;;4.43;;
3207;SDS011;1616;52.394;9.756;2023-05-13T04:57:49;5.23;;;4.73;;
3207;SDS011;1616;52.394;9.756;2023-05-13T05:00:16;4.40;;;4.10;;
3207;SDS011;1616;52.394;9.756;2023-05-13T05:02:42;5.20;;;4.07;;
3207;SDS011;1616;52.394;9.756;2023-05-13T05:05:08;5.80;;;4.23;;
3207;SDS011;1616;52.394;9.756;2023-05-13T05:07:33;4.10;;;3.90;;
3207;SDS011;1616;52.394;9.756;2023-05-13T05:09:59;4.07;;;3.87;;
3207;SDS011;1616;52.394;9.756;2023-05-13T05:12:25;7.00;;;4.37;;
3207;SDS011;1616;52.394;9.756;2023-05-13T05:14:51;3.90;;;3.60;;
3207;SDS011;1616;52.394;9.756;2023-05-13T05:17:16;7.53;;;3.70;;
3207;SDS011;1616;52.394;9.756;2023-05-13T05:19:42;3.90;;;3.23;;
3207;SDS011;1616;52.394;9.756;2023-05-13T05:22:08;3.90;;;3.70;;
3207;SDS011;1616;52.394;9.756;2023-05-13T05:24:33;5.50;;;3.83;;
3207;SDS011;1616;52.394;9.756;2023-05-13T05:26:59;4.80;;;4.17;;
3207;SDS011;1616;52.394;9.756;2023-05-13T05:29:25;5.30;;;3.80;;
3207;SDS011;1616;52.394;9.756;2023-05-13T05:31:51;5.97;;;3.67;;
3207;SDS011;1616;52.394;9.756;2023-05-13T05:34:17;10.00;;;4.27;;
3207;SDS011;1616;52.394;9.756;2023-05-13T05:36:42;3.20;;;3.00;;
3207;SDS011;1616;52.394;9.756;2023-05-13T05:39:08;4.73;;;3.60;;
3207;SDS011;1616;52.394;9.756;2023-05-13T05:41:33;3.33;;;2.90;;
3207;SDS011;1616;52.394;9.756;2023-05-13T05:43:59;7.60;;;3.20;;
3207;SDS011;1616;52.394;9.756;2023-05-13T05:46:25;4.33;;;3.80;;
3207;SDS011;1616;52.394;9.756;2023-05-13T05:48:50;16.03;;;4.30;;
3207;SDS011;1616;52.394;9.756;2023-05-13T05:51:16;4.43;;;3.53;;
3207;SDS011;1616;52.394;9.756;2023-05-13T05:53:42;3.67;;;3.47;;
3207;SDS011;1616;52.394;9.756;2023-05-13T05:56:07;4.03;;;3.47;;
3207;SDS011;1616;52.394;9.756;2023-05-13T05:58:33;3.83;;;3.10;;
3207;SDS011;1616;52.394;9.756;2023-05-13T06:01:01;3.40;;;3.20;;
3207;SDS011;1616;52.394;9.756;2023-05-13T06:03:26;3.93;;;2.40;;
3207;SDS011;1616;52.394;9.756;2023-05-13T06:05:52;5.17;;;3.13;;
3207;SDS011;1616;52.394;9.756;2023-05-13T06:08:18;3.93;;;3.30;;
3207;SDS011;1616;52.394;9.756;2023-05-13T06:10:44;3.27;;;3.03;;
3207;SDS011;1616;52.394;9.756;2023-05-13T06:13:10;8.10;;;3.43;;
3207;SDS011;1616;52.394;9.756;2023-05-13T06:15:39;5.90;;;3.23;;
3207;SDS011;1616;52.394;9.756;2023-05-13T06:18:05;3.03;;;2.70;;
3207;SDS011;1616;52.394;9.756;2023-05-13T06:20:31;3.60;;;3.40;;
3207;SDS011;1616;52.394;9.756;2023-05-13T06:22:56;6.77;;;3.60;;
3207;SDS011;1616;52.394;9.756;2023-05-13T06:25:22;3.60;;;2.97;;
3207;SDS011;1616;52.394;9.756;2023-05-13T06:27:47;3.00;;;2.80;;
3207;SDS011;1616;52.394;9.756;2023-05-13T06:30:13;4.30;;;2.70;;
3207;SDS011;1616;52.394;9.756;2023-05-13T06:32:39;2.67;;;2.57;;
3207;SDS011;1616;52.394;9.756;2023-05-13T06:35:04;8.03;;;3.20;;
3207;SDS011;1616;52.394;9.756;2023-05-13T06:37:30;5.23;;;3.00;;
3207;SDS011;1616;52.394;9.756;2023-05-13T06:39:56;7.20;;;3.10;;
3207;SDS011;1616;52.394;9.756;2023-05-13T06:42:22;5.00;;;3.00;;
3207;SDS011;1616;52.394;9.756;2023-05-13T06:44:48;3.00;;;2.80;;
3207;SDS011;1616;52.394;9.756;2023-05-13T06:47:13;4.00;;;3.30;;
3207;SDS011;1616;52.394;9.756;2023-05-13T06:49:40;5.07;;;2.97;;
3207;SDS011;1616;52.394;9.756;2023-05-13T06:52:07;5.03;;;3.63;;
3207;SDS011;1616;52.394;9.756;2023-05-13T06:54:33;4.00;;;3.60;;
3207;SDS011;1616;52.394;9.756;2023-05-13T06:56:59;2.40;;;2.30;;
3207;SDS011;1616;52.394;9.756;2023-05-13T06:59:25;2.90;;;2.70;;
3207;SDS011;1616;52.394;9.756;2023-05-13T07:01:51;2.63;;;2.53;;
3207;SDS011;1616;52.394;9.756;2023-05-13T07:04:16;3.33;;;3.13;;
3207;SDS011;1616;52.394;9.756;2023-05-13T07:06:42;2.30;;;2.20;;
3207;SDS011;1616;52.394;9.756;2023-05-13T07:09:07;3.60;;;2.50;;
3207;SDS011;1616;52.394;9.756;2023-05-13T07:11:34;7.30;;;2.90;;
3207;SDS011;1616;52.394;9.756;2023-05-13T07:14:00;3.07;;;2.77;;
3207;SDS011;1616;52.394;9.756;2023-05-13T07:16:26;2.50;;;2.20;;
3207;SDS011;1616;52.394;9.756;2023-05-13T07:18:51;3.10;;;2.90;;
3207;SDS011;1616;52.394;9.756;2023-05-13T07:21:18;3.00;;;2.67;;
3207;SDS011;1616;52.394;9.756;2023-05-13T07:23:44;3.50;;;2.50;;
3207;SDS011;1616;52.394;9.756;2023-05-13T07:26:10;4.07;;;3.27;;
3207;SDS011;1616;52.394;9.756;2023-05-13T07:28:36;11.23;;;3.20;;
3207;SDS011;1616;52.394;9.756;2023-05-13T07:31:03;3.07;;;2.33;;
3207;SDS011;1616;52.394;9.756;2023-05-13T07:33:29;4.10;;;2.97;;
3207;SDS011;1616;52.394;9.756;2023-05-13T07:35:55;2.90;;;2.40;;
3207;SDS011;1616;52.394;9.756;2023-05-13T07:38:21;5.73;;;2.33;;
3207;SDS011;1616;52.394;9.756;2023-05-13T07:40:47;2.15;;;2.05;;
3207;SDS011;1616;52.394;9.756;2023-05-13T07:43:13;5.72;;;1.98;;
3207;SDS011;1616;52.394;9.756;2023-05-13T07:45:42;3.28;;;2.28;;
3207;SDS011;1616;52.394;9.756;2023-05-13T07:48:07;2.08;;;1.98;;
3207;SDS011;1616;52.394;9.756;2023-05-13T07:50:34;2.22;;;2.10;;
3207;SDS011;1616;52.394;9.756;2023-05-13T07:53:01;10.77;;;2.42;;
3207;SDS011;1616;52.394;9.756;2023-05-13T07:55:26;3.65;;;2.45;;
3207;SDS011;1616;52.394;9.756;2023-05-13T07:57:52;2.53;;;2.25;;
3207;SDS011;1616;52.394;9.756;2023-05-13T08:00:17;3.90;;;2.70;;
3207;SDS011;1616;52.394;9.756;2023-05-13T08:02:43;3.22;;;2.55;;
3207;SDS011;1616;52.394;9.756;2023-05-13T08:05:09;7.20;;;2.17;;
3207;SDS011;1616;52.394;9.756;2023-05-13T08:07:35;4.40;;;2.17;;
3207;SDS011;1616;52.394;9.756;2023-05-13T08:10:01;4.50;;;2.20;;
3207;SDS011;1616;52.394;9.756;2023-05-13T08:12:26;2.45;;;2.25;;
3207;SDS011;1616;52.394;9.756;2023-05-13T08:14:52;3.65;;;2.25;;
3207;SDS011;1616;52.394;9.756;2023-05-13T08:17:17;2.70;;;2.10;;
3207;SDS011;1616;52.394;9.756;2023-05-13T08:19:43;6.80;;;2.38;;
3207;SDS011;1616;52.394;9.756;2023-05-13T08:22:10;2.55;;;2.03;;
3207;SDS011;1616;52.394;9.756;2023-05-13T08:24:35;2.88;;;2.00;;
3207;SDS011;1616;52.394;9.756;2023-05-13T08:27:01;3.08;;;2.38;;
3207;SDS011;1616;52.394;9.756;2023-05-13T08:29:27;3.28;;;2.58;;
3207;SDS011;1616;52.394;9.756;2023-05-13T08:31:53;2.92;;;2.35;;
3207;SDS011;1616;52.394;9.756;2023-05-13T08:34:19;3.42;;;2.65;;
3207;SDS011;1616;52.394;9.756;2023-05-13T08:36:45;2.08;;;1.98;;
3207;SDS011;1616;52.394;9.756;2023-05-13T08:39:11;4.60;;;2.00;;
3207;SDS011;1616;52.394;9.756;2023-05-13T08:41:37;6.40;;;2.17;;
3207;SDS011;1616;52.394;9.756;2023-05-13T08:44:05;3.17;;;2.22;;
3207;SDS011;1616;52.394;9.756;2023-05-13T08:46:33;5.13;;;2.55;;
3207;SDS011;1616;52.394;9.756;2023-05-13T08:49:02;3.55;;;2.60;;
3207;SDS011;1616;52.394;9.756;2023-05-13T08:51:28;4.25;;;2.17;;
3207;SDS011;1616;52.394;9.756;2023-05-13T08:53:55;5.43;;;2.38;;
3207;SDS011;1616;52.394;9.756;2023-05-13T08:56:21;2.50;;;2.10;;
3207;SDS011;1616;52.394;9.756;2023-05-13T08:58:49;3.97;;;2.38;;
3207;SDS011;1616;52.394;9.756;2023-05-13T09:01:15;5.97;;;2.28;;
3207;SDS011;1616;52.394;9.756;2023-05-13T09:03:45;5.93;;;2.95;;
3207;SDS011;1616;52.394;9.756;2023-05-13T09:06:26;3.30;;;2.05;;
3207;SDS011;1616;52.394;9.756;2023-05-13T09:08:52;11.48;;;2.72;;
3207;SDS011;1616;52.394;9.756;2023-05-13T09:11:19;3.50;;;3.22;;
3207;SDS011;1616;52.394;9.756;2023-05-13T09:13:55;3.47;;;2.67;;
3207;SDS011;1616;52.394;9.756;2023-05-13T09:16:23;2.72;;;2.38;;
3207;SDS011;1616;52.394;9.756;2023-05-13T09:19:01;2.58;;;2.38;;
3207;SDS011;1616;52.394;9.756;2023-05-13T09:21:29;3.17;;;2.92;;
3207;SDS011;1616;52.394;9.756;2023-05-13T09:24:12;3.08;;;2.78;;
3207;SDS011;1616;52.394;9.756;2023-05-13T09:26:42;4.00;;;2.90;;
3207;SDS011;1616;52.394;9.756;2023-05-13T09:29:15;5.47;;;2.77;;
3207;SDS011;1616;52.394;9.756;2023-05-13T09:31:43;2.63;;;2.42;;
3207;SDS011;1616;52.394;9.756;2023-05-13T09:34:23;7.82;;;2.30;;
3207;SDS011;1616;52.394;9.756;2023-05-13T09:37:06;4.28;;;2.20;;
3207;SDS011;1616;52.394;9.756;2023-05-13T09:39:38;4.65;;;2.55;;
3207;SDS011;1616;52.394;9.756;2023-05-13T09:42:05;4.72;;;2.10;;
3207;SDS011;1616;52.394;9.756;2023-05-13T09:44:40;3.25;;;1.80;;
3207;SDS011;1616;52.394;9.756;2023-05-13T09:47:10;2.70;;;2.33;;
3207;SDS011;1616;52.394;9.756;2023-05-13T09:49:39;4.85;;;2.85;;
3207;SDS011;1616;52.394;9.756;2023-05-13T09:52:07;5.32;;;2.33;;
3207;SDS011;1616;52.394;9.756;2023-05-13T09:54:35;2.97;;;2.33;;
3207;SDS011;1616;52.394;9.756;2023-05-13T09:57:04;3.70;;;2.70;;
3207;SDS011;1616;52.394;9.756;2023-05-13T09:59:33;2.28;;;2.08;;
3207;SDS011;1616;52.394;9.756;2023-05-13T10:01:59;5.10;;;3.05;;
3207;SDS011;1616;52.394;9.756;2023-05-13T10:04:28;2.33;;;2.10;;
3207;SDS011;1616;52.394;9.756;2023-05-13T10:06:56;3.97;;;2.55;;
3207;SDS011;1616;52.394;9.756;2023-05-13T10:09:27;2.90;;;2.70;;
3207;SDS011;1616;52.394;9.756;2023-05-13T10:11:55;3.42;;;2.70;;
3207;SDS011;1616;52.394;9.756;2023-05-13T10:14:24;2.87;;;2.40;;
3207;SDS011;1616;52.394;9.756;2023-05-13T10:16:50;2.17;;;2.08;;
3207;SDS011;1616;52.394;9.756;2023-05-13T10:19:17;2.90;;;2.70;;
3207;SDS011;1616;52.394;9.756;2023-05-13T10:21:44;2.73;;;2.60;;
3207;SDS011;1616;52.394;9.756;2023-05-13T10:24:12;4.73;;;2.60;;
3207;SDS011;1616;52.394;9.756;2023-05-13T10:26:38;2.80;;;2.60;;
3207;SDS011;1616;52.394;9.756;2023-05-13T10:29:05;6.93;;;2.60;;
3207;SDS011;1616;52.394;9.756;2023-05-13T10:31:32;2.83;;;2.63;;
3207;SDS011;1616;52.394;9.756;2023-05-13T10:33:58;5.65;;;3.03;;
3207;SDS011;1616;52.394;9.756;2023-05-13T10:36:39;3.17;;;2.87;;
3207;SDS011;1616;52.394;9.756;2023-05-13T10:44:43;4.80;;;2.70;;
3207;SDS011;1616;52.394;9.756;2023-05-13T10:47:08;3.30;;;3.10;;
3207;SDS011;1616;52.394;9.756;2023-05-13T10:49:35;2.77;;;2.57;;
3207;SDS011;1616;52.394;9.756;2023-05-13T10:52:05;6.37;;;2.50;;
3207;SDS011;1616;52.394;9.756;2023-05-13T10:54:39;5.72;;;2.85;;
3207;SDS011;1616;52.394;9.756;2023-05-13T10:57:06;2.60;;;2.40;;
3207;SDS011;1616;52.394;9.756;2023-05-13T10:59:33;1.95;;;1.85;;
3207;SDS011;1616;52.394;9.756;2023-05-13T11:02:00;3.45;;;3.15;;
3207;SDS011;1616;52.394;9.756;2023-05-13T11:04:28;2.53;;;1.83;;
3207;SDS011;1616;52.394;9.756;2023-05-13T11:06:54;3.05;;;2.75;;
3207;SDS011;1616;52.394;9.756;2023-05-13T11:11:53;2.33;;;2.22;;
3207;SDS011;1616;52.394;9.756;2023-05-13T11:14:21;5.80;;;2.00;;
3207;SDS011;1616;52.394;9.756;2023-05-13T11:16:52;1.73;;;1.63;;
3207;SDS011;1616;52.394;9.756;2023-05-13T11:19:25;3.08;;;2.20;;
3207;SDS011;1616;52.394;9.756;2023-05-13T11:21:54;3.58;;;1.65;;
3207;SDS011;1616;52.394;9.756;2023-05-13T11:24:22;2.00;;;1.80;;
3207;SDS011;1616;52.394;9.756;2023-05-13T11:26:52;2.22;;;2.03;;
3207;SDS011;1616;52.394;9.756;2023-05-13T11:29:34;6.85;;;2.20;;
3207;SDS011;1616;52.394;9.756;2023-05-13T11:32:01;4.43;;;2.00;;
3207;SDS011;1616;52.394;9.756;2023-05-13T11:34:28;3.00;;;1.70;;
3207;SDS011;1616;52.394;9.756;2023-05-13T11:36:56;1.90;;;1.80;;
3207;SDS011;1616;52.394;9.756;2023-05-13T11:39:28;2.20;;;2.00;;
3207;SDS011;1616;52.394;9.756;2023-05-13T11:41:53;3.53;;;2.27;;
3207;SDS011;1616;52.394;9.756;2023-05-13T11:44:22;2.30;;;2.10;;
3207;SDS011;1616;52.394;9.756;2023-05-13T11:49:31;2.80;;;2.20;;
3207;SDS011;1616;52.394;9.756;2023-05-13T11:52:07;2.07;;;1.90;;
3207;SDS011;1616;52.394;9.756;2023-05-13T11:54:47;3.30;;;2.03;;
3207;SDS011;1616;52.394;9.756;2023-05-13T11:59:57;2.10;;;2.00;;
3207;SDS011;1616;52.394;9.756;2023-05-13T12:02:25;2.40;;;2.20;;
3207;SDS011;1616;52.394;9.756;2023-05-13T12:04:59;2.87;;;1.73;;
3207;SDS011;1616;52.394;9.756;2023-05-13T12:07:29;3.67;;;1.77;;
3207;SDS011;1616;52.394;9.756;2023-05-13T12:09:56;3.30;;;1.87;;
3207;SDS011;1616;52.394;9.756;2023-05-13T12:12:24;1.70;;;1.60;;
3207;SDS011;1616;52.394;9.756;2023-05-13T12:14:51;2.27;;;2.10;;
3207;SDS011;1616;52.394;9.756;2023-05-13T12:17:18;2.60;;;2.00;;
3207;SDS011;1616;52.394;9.756;2023-05-13T12:20:03;4.20;;;1.70;;
3207;SDS011;1616;52.394;9.756;2023-05-13T12:22:33;2.10;;;1.90;;
3207;SDS011;1616;52.394;9.756;2023-05-13T12:24:59;3.00;;;1.90;;
3207;SDS011;1616;52.394;9.756;2023-05-13T12:27:27;2.90;;;1.80;;
3207;SDS011;1616;52.394;9.756;2023-05-13T12:29:55;3.60;;;1.90;;
3207;SDS011;1616;52.394;9.756;2023-05-13T12:32:23;2.40;;;2.20;;
3207;SDS011;1616;52.394;9.756;2023-05-13T12:34:49;2.60;;;2.00;;
3207;SDS011;1616;52.394;9.756;2023-05-13T12:37:15;10.10;;;1.90;;
3207;SDS011;1616;52.394;9.756;2023-05-13T12:39:42;2.80;;;1.70;;
3207;SDS011;1616;52.394;9.756;2023-05-13T12:42:14;6.40;;;1.93;;
3207;SDS011;1616;52.394;9.756;2023-05-13T12:44:42;4.07;;;1.70;;
3207;SDS011;1616;52.394;9.756;2023-05-13T12:47:08;2.93;;;1.80;;
3207;SDS011;1616;52.394;9.756;2023-05-13T12:49:57;3.63;;;2.00;;
3207;SDS011;1616;52.394;9.756;2023-05-13T12:52:22;4.97;;;2.63;;
3207;SDS011;1616;52.394;9.756;2023-05-13T12:54:48;2.23;;;2.03;;
3207;SDS011;1616;52.394;9.756;2023-05-13T12:57:15;4.33;;;2.20;;
3207;SDS011;1616;52.394;9.756;2023-05-13T12:59:41;2.17;;;2.07;;
3207;SDS011;1616;52.394;9.756;2023-05-13T13:02:08;2.53;;;1.80;;
3207;SDS011;1616;52.394;9.756;2023-05-13T13:04:34;7.07;;;2.20;;
3207;SDS011;1616;52.394;9.756;2023-05-13T13:07:00;3.07;;;1.87;;
3207;SDS011;1616;52.394;9.756;2023-05-13T13:09:26;2.37;;;2.17;;
3207;SDS011;1616;52.394;9.756;2023-05-13T13:11:51;2.60;;;2.33;;
3207;SDS011;1616;52.394;9.756;2023-05-13T13:14:17;2.57;;;1.90;;
3207;SDS011;1616;52.394;9.756;2023-05-13T13:16:42;4.73;;;1.80;;
3207;SDS011;1616;52.394;9.756;2023-05-13T13:19:08;2.60;;;2.17;;
3207;SDS011;1616;52.394;9.756;2023-05-13T13:21:34;5.93;;;2.30;;
3207;SDS011;1616;52.394;9.756;2023-05-13T13:23:59;4.30;;;2.30;;
3207;SDS011;1616;52.394;9.756;2023-05-13T13:26:25;3.23;;;1.77;;
3207;SDS011;1616;52.394;9.756;2023-05-13T13:28:51;2.80;;;2.37;;
3207;SDS011;1616;52.394;9.756;2023-05-13T13:31:17;5.00;;;1.90;;
3207;SDS011;1616;52.394;9.756;2023-05-13T13:33:42;5.03;;;1.73;;
3207;SDS011;1616;52.394;9.756;2023-05-13T13:36:08;4.43;;;2.20;;
3207;SDS011;1616;52.394;9.756;2023-05-13T13:38:34;7.83;;;1.80;;
3207;SDS011;1616;52.394;9.756;2023-05-13T13:41:00;2.90;;;1.67;;
3207;SDS011;1616;52.394;9.756;2023-05-13T13:43:25;6.53;;;1.53;;
3207;SDS011;1616;52.394;9.756;2023-05-13T13:45:51;5.13;;;2.10;;
3207;SDS011;1616;52.394;9.756;2023-05-13T13:48:17;2.47;;;2.27;;
3207;SDS011;1616;52.394;9.756;2023-05-13T13:50:43;2.30;;;2.10;;
3207;SDS011;1616;52.394;9.756;2023-05-13T13:53:08;3.33;;;2.30;;
3207;SDS011;1616;52.394;9.756;2023-05-13T13:55:34;7.10;;;1.80;;
3207;SDS011;1616;52.394;9.756;2023-05-13T13:58:00;2.97;;;1.63;;
3207;SDS011;1616;52.394;9.756;2023-05-13T14:00:26;4.07;;;1.47;;
3207;SDS011;1616;52.394;9.756;2023-05-13T14:02:54;2.90;;;1.40;;
3207;SDS011;1616;52.394;9.756;2023-05-13T14:05:20;1.97;;;1.80;;
3207;SDS011;1616;52.394;9.756;2023-05-13T14:07:46;3.20;;;1.67;;
3207;SDS011;1616;52.394;9.756;2023-05-13T14:10:13;6.80;;;1.60;;
3207;SDS011;1616;52.394;9.756;2023-05-13T14:12:38;4.27;;;1.87;;
3207;SDS011;1616;52.394;9.756;2023-05-13T14:15:04;1.70;;;1.60;;
3207;SDS011;1616;52.394;9.756;2023-05-13T14:17:31;1.60;;;1.40;;
3207;SDS011;1616;52.394;9.756;2023-05-13T14:19:57;2.53;;;1.70;;
3207;SDS011;1616;52.394;9.756;2023-05-13T14:22:23;3.20;;;1.70;;
3207;SDS011;1616;52.394;9.756;2023-05-13T14:24:52;1.83;;;1.40;;
3207;SDS011;1616;52.394;9.756;2023-05-13T14:27:18;1.53;;;1.43;;
3207;SDS011;1616;52.394;9.756;2023-05-13T14:29:45;2.27;;;1.40;;
3207;SDS011;1616;52.394;9.756;2023-05-13T14:32:11;1.47;;;1.37;;
3207;SDS011;1616;52.394;9.756;2023-05-13T14:34:37;1.73;;;1.50;;
3207;SDS011;1616;52.394;9.756;2023-05-13T14:37:03;4.00;;;1.53;;
3207;SDS011;1616;52.394;9.756;2023-05-13T14:39:29;3.10;;;1.63;;
3207;SDS011;1616;52.394;9.756;2023-05-13T14:41:55;5.40;;;1.70;;
3207;SDS011;1616;52.394;9.756;2023-05-13T14:44:21;3.83;;;1.50;;
3207;SDS011;1616;52.394;9.756;2023-05-13T14:46:46;1.67;;;1.57;;
3207;SDS011;1616;52.394;9.756;2023-05-13T14:49:12;5.00;;;1.60;;
3207;SDS011;1616;52.394;9.756;2023-05-13T14:51:37;1.60;;;1.50;;
3207;SDS011;1616;52.394;9.756;2023-05-13T14:54:03;3.00;;;1.50;;
3207;SDS011;1616;52.394;9.756;2023-05-13T14:56:29;3.20;;;1.70;;
3207;SDS011;1616;52.394;9.756;2023-05-13T14:58:55;5.43;;;1.50;;
3207;SDS011;1616;52.394;9.756;2023-05-13T15:01:20;1.40;;;1.30;;
3207;SDS011;1616;52.394;9.756;2023-05-13T15:03:46;1.70;;;1.60;;
3207;SDS011;1616;52.394;9.756;2023-05-13T15:06:12;2.87;;;1.63;;
3207;SDS011;1616;52.394;9.756;2023-05-13T15:08:37;4.00;;;1.73;;
3207;SDS011;1616;52.394;9.756;2023-05-13T15:11:03;4.80;;;1.60;;
3207;SDS011;1616;52.394;9.756;2023-05-13T15:13:29;2.80;;;2.03;;
3207;SDS011;1616;52.394;9.756;2023-05-13T15:16:02;1.90;;;1.70;;
3207;SDS011;1616;52.394;9.756;2023-05-13T15:18:28;1.90;;;1.70;;
3207;SDS011;1616;52.394;9.756;2023-05-13T15:20:54;1.57;;;1.47;;
3207;SDS011;1616;52.394;9.756;2023-05-13T15:23:20;2.80;;;1.50;;
3207;SDS011;1616;52.394;9.756;2023-05-13T15:25:45;1.93;;;1.47;;
3207;SDS011;1616;52.394;9.756;2023-05-13T15:28:12;1.60;;;1.50;;
3207;SDS011;1616;52.394;9.756;2023-05-13T15:30:38;3.53;;;1.60;;
3207;SDS011;1616;52.394;9.756;2023-05-13T15:33:04;7.23;;;1.53;;